createdAt,value
2023-04-07T00:00:04.523Z,98357.53
2023-04-07T00:03:13.366Z,98351.41
2023-04-07T00:06:15.058Z,98353.16
2023-04-07T00:09:18.248Z,98358.25
2023-04-07T00:12:19.956Z,98358.00
2023-04-07T00:15:21.634Z,98341.28
2023-04-07T00:18:23.781Z,98347.56
2023-04-07T00:21:27.161Z,98346.72
2023-04-07T00:24:34.222Z,98354.00
2023-04-07T00:27:36.198Z,98341.72
2023-04-07T00:30:37.938Z,98342.78
2023-04-07T00:33:39.497Z,98342.19
2023-04-07T00:36:41.108Z,98351.81
2023-04-07T00:39:44.046Z,98349.34
2023-04-07T00:46:06.158Z,98340.78
2023-04-07T00:49:10.603Z,98337.44
2023-04-07T00:52:14.135Z,98337.53
2023-04-07T00:55:17.114Z,98339.25
2023-04-07T00:58:18.653Z,98329.81
2023-04-07T01:01:23.166Z,98332.34
2023-04-07T01:04:28.561Z,98329.91
2023-04-07T01:07:34.945Z,98323.69
2023-04-07T01:10:49.583Z,98324.72
2023-04-07T01:13:54.468Z,98329.34
2023-04-07T01:17:10.462Z,98324.16
2023-04-07T01:20:14.159Z,98321.63
2023-04-07T01:23:21.678Z,98323.69
2023-04-07T01:26:27.972Z,98327.38
2023-04-07T01:29:37.278Z,98326.69
2023-04-07T01:32:40.398Z,98314.38
2023-04-07T01:35:42.954Z,98315.34
2023-04-07T01:38:46.329Z,98314.38
2023-04-07T01:41:49.303Z,98312.56
2023-04-07T01:44:53.094Z,98314.47
2023-04-07T01:47:54.961Z,98313.66
2023-04-07T01:50:57.148Z,98319.91
2023-04-07T01:53:59.036Z,98315.59
2023-04-07T01:57:01.719Z,98312.94
2023-04-07T02:00:06.504Z,98315.66
2023-04-07T02:03:23.470Z,98306.00
2023-04-07T02:06:39.059Z,98321.16
2023-04-07T02:09:42.976Z,98310.69
2023-04-07T02:12:46.489Z,98305.63
2023-04-07T02:19:06.679Z,98305.84
2023-04-07T02:22:09.281Z,98303.25
2023-04-07T02:25:24.595Z,98307.00
2023-04-07T02:28:28.755Z,98313.22
2023-04-07T02:31:30.670Z,98312.25
2023-04-07T02:34:33.779Z,98299.16
2023-04-07T02:37:35.582Z,98303.72
2023-04-07T02:40:37.418Z,98314.53
2023-04-07T02:43:38.997Z,98311.88
2023-04-07T02:46:41.402Z,98314.81
2023-04-07T02:49:44.455Z,98309.66
2023-04-07T02:52:46.215Z,98315.81
2023-04-07T02:55:49.770Z,98313.38
2023-04-07T02:58:51.415Z,98312.56
2023-04-07T03:01:53.914Z,98313.47
2023-04-07T03:17:08.224Z,98304.69
2023-04-07T03:20:10.708Z,98304.91
2023-04-07T03:23:13.257Z,98307.66
2023-04-07T03:26:14.976Z,98303.34
2023-04-07T03:29:17.451Z,98305.00
2023-04-07T03:32:20.496Z,98304.16
2023-04-07T03:35:22.235Z,98306.75
2023-04-07T03:38:23.924Z,98308.53
2023-04-07T03:41:30.404Z,98304.09
2023-04-07T03:44:32.221Z,98300.75
2023-04-07T03:47:35.630Z,98302.47
2023-04-07T03:50:39.730Z,98302.47
2023-04-07T03:53:49.369Z,98303.28
2023-04-07T03:57:03.262Z,98298.97
2023-04-07T04:00:09.370Z,98305.00
2023-04-07T04:03:32.097Z,98300.59
2023-04-07T04:06:46.291Z,98301.44
2023-04-07T04:10:08.513Z,98301.44
2023-04-07T04:13:14.593Z,98305.03
2023-04-07T04:16:17.607Z,98305.22
2023-04-07T04:19:22.724Z,98308.63
2023-04-07T04:22:24.684Z,98308.63
2023-04-07T04:25:32.637Z,98304.47
2023-04-07T04:28:36.109Z,98305.34
2023-04-07T04:31:40.730Z,98301.81
2023-04-07T04:34:44.574Z,98306.09
2023-04-07T04:37:48.564Z,98308.75
2023-04-07T04:40:50.561Z,98309.75
2023-04-07T04:43:55.634Z,98313.38
2023-04-07T04:46:59.829Z,98322.38
2023-04-07T04:50:03.281Z,98317.31
2023-04-07T04:53:08.529Z,98324.78
2023-04-07T04:56:13.219Z,98320.47
2023-04-07T04:59:16.094Z,98318.84
2023-04-07T05:05:50.785Z,98324.38
2023-04-07T05:08:56.674Z,98321.75
2023-04-07T05:12:02.651Z,98324.53
2023-04-07T05:15:09.432Z,98325.59
2023-04-07T05:18:11.711Z,98325.75
2023-04-07T05:21:14.902Z,98334.53
2023-04-07T05:24:16.696Z,98337.28
2023-04-07T05:27:21.654Z,98345.97
2023-04-07T05:30:28.139Z,98347.84
2023-04-07T05:33:32.810Z,98344.28
2023-04-07T05:36:36.581Z,98345.09
2023-04-07T05:39:38.636Z,98342.31
2023-04-07T05:42:45.409Z,98348.44
2023-04-07T05:45:48.316Z,98353.72
2023-04-07T05:48:59.210Z,98344.06
2023-04-07T05:52:06.965Z,98348.28
2023-04-07T05:55:15.300Z,98350.78
2023-04-07T05:58:17.551Z,98346.25
2023-04-07T06:01:24.066Z,98347.97
2023-04-07T06:04:26.996Z,98349.56
2023-04-07T06:07:30.397Z,98350.28
2023-04-07T06:13:52.655Z,98364.91
2023-04-07T06:16:54.633Z,98364.97
2023-04-07T06:19:56.703Z,98366.66
2023-04-07T06:23:01.060Z,98362.78
2023-04-07T06:26:03.050Z,98370.63
2023-04-07T06:29:04.823Z,98373.06
2023-04-07T06:32:06.801Z,98375.44
2023-04-07T06:35:08.755Z,98382.28
2023-04-07T06:38:12.348Z,98380.56
2023-04-07T06:41:17.054Z,98381.06
2023-04-07T06:44:18.714Z,98382.44
2023-04-07T06:47:20.395Z,98387.16
2023-04-07T06:50:22.369Z,98396.41
2023-04-07T06:53:25.918Z,98389.19
2023-04-07T06:56:27.564Z,98393.28
2023-04-07T06:59:29.203Z,98394.72
2023-04-07T07:02:31.175Z,98396.91
2023-04-07T07:05:33.069Z,98398.44
2023-04-07T07:08:36.385Z,98400.78
2023-04-07T07:11:38.262Z,98400.00
2023-04-07T07:14:40.002Z,98406.47
2023-04-07T07:17:42.062Z,98410.50
2023-04-07T07:20:43.802Z,98415.72
2023-04-07T07:23:47.223Z,98408.56
2023-04-07T07:26:49.215Z,98415.97
2023-04-07T07:29:51.131Z,98423.81
2023-04-07T07:32:56.411Z,98418.38
2023-04-07T07:35:58.381Z,98418.50
2023-04-07T07:39:01.837Z,98427.28
2023-04-07T07:42:03.675Z,98421.72
2023-04-07T07:45:05.791Z,98428.97
2023-04-07T07:48:07.780Z,98424.88
2023-04-07T07:51:09.570Z,98433.84
2023-04-07T07:54:13.109Z,98433.97
2023-04-07T07:57:14.944Z,98439.09
2023-04-07T08:00:17.263Z,98427.31
2023-04-07T08:03:20.193Z,98443.53
2023-04-07T08:06:22.232Z,98441.19
2023-04-07T08:09:25.453Z,98439.50
2023-04-07T08:12:27.325Z,98443.72
2023-04-07T08:15:31.350Z,98441.19
2023-04-07T08:18:33.242Z,98438.91
2023-04-07T08:21:35.227Z,98442.59
2023-04-07T08:24:38.396Z,98441.03
2023-04-07T08:27:40.172Z,98445.47
2023-04-07T08:30:41.972Z,98446.22
2023-04-07T08:33:44.040Z,98445.38
2023-04-07T08:36:45.994Z,98454.25
2023-04-07T08:39:49.244Z,98451.56
2023-04-07T08:42:51.788Z,98456.75
2023-04-07T08:45:56.820Z,98460.56
2023-04-07T08:48:59.646Z,98452.22
2023-04-07T08:52:04.716Z,98457.47
2023-04-07T08:55:09.930Z,98462.97
2023-04-07T08:58:12.644Z,98466.09
2023-04-07T09:01:16.929Z,98465.59
2023-04-07T09:04:19.340Z,98461.13
2023-04-07T09:07:21.261Z,98466.69
2023-04-07T09:10:26.108Z,98458.09
2023-04-07T09:13:28.117Z,98470.00
2023-04-07T09:16:31.226Z,98467.59
2023-04-07T09:19:33.789Z,98464.19
2023-04-07T09:22:36.972Z,98470.06
2023-04-07T09:25:40.858Z,98467.66
2023-04-07T09:28:46.094Z,98467.34
2023-04-07T09:31:48.519Z,98468.72
2023-04-07T09:34:58.287Z,98471.00
2023-04-07T09:38:03.810Z,98463.13
2023-04-07T09:41:10.992Z,98462.47
2023-04-07T09:44:13.202Z,98474.00
2023-04-07T09:50:34.920Z,98468.22
2023-04-07T09:53:42.286Z,98463.91
2023-04-07T09:56:45.647Z,98467.25
2023-04-07T10:06:44.063Z,98469.50
2023-04-07T10:09:46.088Z,98471.09
2023-04-07T10:12:50.188Z,98471.66
2023-04-07T10:15:52.413Z,98469.06
2023-04-07T10:18:54.781Z,98466.63
2023-04-07T10:21:59.035Z,98475.09
2023-04-07T10:25:04.783Z,98470.81
2023-04-07T10:28:09.689Z,98466.53
2023-04-07T10:31:11.966Z,98476.53
2023-04-07T10:34:13.657Z,98465.84
2023-04-07T10:37:17.748Z,98477.59
2023-04-07T10:40:29.459Z,98478.94
2023-04-07T10:43:40.264Z,98480.28
2023-04-07T10:47:00.456Z,98479.34
2023-04-07T10:53:16.222Z,98480.06
2023-04-07T10:56:17.827Z,98487.28
2023-04-07T10:59:28.554Z,98489.56
2023-04-07T11:02:31.214Z,98485.66
2023-04-07T11:05:32.987Z,98489.31
2023-04-07T11:08:34.830Z,98489.16
2023-04-07T11:11:40.678Z,98496.88
2023-04-07T11:14:43.777Z,98492.47
2023-04-07T11:17:45.695Z,98498.53
2023-04-07T11:20:48.655Z,98492.47
2023-04-07T11:23:50.706Z,98498.19
2023-04-07T11:26:52.591Z,98501.16
2023-04-07T11:29:56.526Z,98491.06
2023-04-07T11:32:58.260Z,98490.13
2023-04-07T11:36:00.951Z,98490.03
2023-04-07T11:39:03.305Z,98485.56
2023-04-07T11:42:07.255Z,98483.94
2023-04-07T11:45:18.179Z,98485.41
2023-04-07T11:48:33.760Z,98489.81
2023-04-07T11:51:35.724Z,98478.94
2023-04-07T11:54:41.615Z,98480.06
2023-04-07T11:57:46.117Z,98481.69
2023-04-07T12:00:55.944Z,98489.50
2023-04-07T12:03:59.324Z,98486.47
2023-04-07T12:07:07.767Z,98488.66
2023-04-07T12:10:18.836Z,98481.56
2023-04-07T12:13:20.396Z,98487.50
2023-04-07T12:16:23.856Z,98494.06
2023-04-07T12:19:25.712Z,98494.47
2023-04-07T12:22:27.279Z,98489.97
2023-04-07T12:25:29.222Z,98491.13
2023-04-07T12:28:31.215Z,98488.16
2023-04-07T12:31:35.014Z,98491.91
2023-04-07T12:34:37.773Z,98495.13
2023-04-07T12:37:41.508Z,98486.91
2023-04-07T12:40:43.329Z,98487.31
2023-04-07T12:43:46.845Z,98489.91
2023-04-07T12:46:50.210Z,98492.47
2023-04-07T12:49:51.831Z,98498.81
2023-04-07T12:52:54.685Z,98500.81
2023-04-07T12:55:57.038Z,98494.00
2023-04-07T12:58:58.675Z,98484.78
2023-04-07T13:02:02.304Z,98487.19
2023-04-07T13:05:05.021Z,98486.91
2023-04-07T13:08:07.936Z,98491.91
2023-04-07T13:11:09.538Z,98482.38
2023-04-07T13:14:11.149Z,98494.53
2023-04-07T13:17:14.321Z,98490.09
2023-04-07T13:20:19.834Z,98492.78
2023-04-07T13:23:23.090Z,98501.59
2023-04-07T13:26:24.748Z,98483.91
2023-04-07T13:29:26.834Z,98491.31
2023-04-07T13:32:29.832Z,98485.59
2023-04-07T13:35:35.748Z,98486.78
2023-04-07T13:38:37.508Z,98494.06
2023-04-07T13:41:39.084Z,98493.97
2023-04-07T13:44:40.737Z,98494.81
2023-04-07T13:47:43.812Z,98492.38
2023-04-07T13:50:45.571Z,98494.72
2023-04-07T13:53:50.283Z,98504.72
2023-04-07T13:56:52.946Z,98500.69
2023-04-07T13:59:54.564Z,98499.78
2023-04-07T14:02:57.633Z,98507.56
2023-04-07T14:06:01.393Z,98500.59
2023-04-07T14:09:03.909Z,98491.50
2023-04-07T14:12:06.280Z,98500.50
2023-04-07T14:15:08.736Z,98498.63
2023-04-07T14:18:11.717Z,98499.09
2023-04-07T14:21:13.315Z,98500.91
2023-04-07T14:24:14.996Z,98497.47
2023-04-07T14:27:21.141Z,98501.69
2023-04-07T14:30:22.930Z,98501.81
2023-04-07T14:33:26.244Z,98502.69
2023-04-07T14:36:28.001Z,98503.50
2023-04-07T14:39:29.991Z,98502.63
2023-04-07T14:42:32.119Z,98499.97
2023-04-07T14:45:33.692Z,98503.41
2023-04-07T14:48:36.621Z,98500.09
2023-04-07T14:51:38.573Z,98498.81
2023-04-07T14:54:40.624Z,98505.41
2023-04-07T14:57:42.257Z,98502.25
2023-04-07T15:00:43.915Z,98509.16
2023-04-07T15:03:47.763Z,98513.03
2023-04-07T15:06:49.984Z,98524.72
2023-04-07T15:09:51.622Z,98523.88
2023-04-07T15:12:53.211Z,98523.56
2023-04-07T15:15:54.871Z,98529.94
2023-04-07T15:18:58.040Z,98520.78
2023-04-07T15:21:59.604Z,98525.06
2023-04-07T15:25:01.860Z,98526.19
2023-04-07T15:28:03.442Z,98523.19
2023-04-07T15:31:08.972Z,98528.59
2023-04-07T15:34:12.853Z,98526.41
2023-04-07T15:37:14.536Z,98540.59
2023-04-07T15:40:16.180Z,98529.91
2023-04-07T15:43:17.765Z,98532.66
2023-04-07T15:46:19.357Z,98531.69
2023-04-07T15:49:25.687Z,98536.81
2023-04-07T15:52:27.733Z,98541.56
2023-04-07T15:55:29.236Z,98540.19
2023-04-07T15:58:31.090Z,98552.53
2023-04-07T16:01:32.862Z,98547.19
2023-04-07T16:04:35.820Z,98551.34
2023-04-07T16:07:37.363Z,98547.50
2023-04-07T16:10:38.936Z,98547.78
2023-04-07T16:13:40.548Z,98559.03
2023-04-07T16:16:44.524Z,98556.59
2023-04-07T16:19:58.233Z,98557.13
2023-04-07T16:22:59.937Z,98557.91
2023-04-07T16:26:01.758Z,98565.31
2023-04-07T16:29:03.510Z,98570.06
2023-04-07T16:32:05.320Z,98569.38
2023-04-07T16:35:09.099Z,98572.09
2023-04-07T16:38:11.850Z,98574.00
2023-04-07T16:41:13.488Z,98577.81
2023-04-07T16:44:15.224Z,98584.06
2023-04-07T16:47:16.840Z,98587.53
2023-04-07T16:50:19.953Z,98591.94
2023-04-07T16:53:22.234Z,98594.31
2023-04-07T16:56:24.429Z,98600.28
2023-04-07T16:59:26.106Z,98595.50
2023-04-07T17:02:27.993Z,98605.72
2023-04-07T17:05:31.200Z,98604.38
2023-04-07T17:08:32.743Z,98604.59
2023-04-07T17:11:34.458Z,98615.53
2023-04-07T17:14:36.444Z,98614.84
2023-04-07T17:17:39.302Z,98620.16
2023-04-07T17:20:42.364Z,98621.25
2023-04-07T17:23:44.087Z,98627.03
2023-04-07T17:26:48.944Z,98634.69
2023-04-07T17:29:50.931Z,98632.59
2023-04-07T17:32:53.777Z,98645.44
2023-04-07T17:35:57.169Z,98646.50
2023-04-07T17:38:58.746Z,98653.16
2023-04-07T17:42:02.552Z,98659.03
2023-04-07T17:45:04.665Z,98656.78
2023-04-07T17:48:10.738Z,98665.84
2023-04-07T17:51:14.376Z,98668.66
2023-04-07T17:54:16.188Z,98666.34
2023-04-07T17:57:18.781Z,98674.78
2023-04-07T18:00:21.362Z,98673.53
2023-04-07T18:03:23.077Z,98677.66
2023-04-07T18:06:28.597Z,98684.38
2023-04-07T18:09:33.320Z,98685.69
2023-04-07T18:12:35.455Z,98695.75
2023-04-07T18:15:37.156Z,98692.44
2023-04-07T18:18:38.875Z,98696.94
2023-04-07T18:21:42.067Z,98706.78
2023-04-07T18:24:44.515Z,98700.22
2023-04-07T18:27:46.363Z,98707.53
2023-04-07T18:30:48.054Z,98710.44
2023-04-07T18:33:49.993Z,98710.63
2023-04-07T18:36:53.883Z,98718.91
2023-04-07T18:39:55.508Z,98718.16
2023-04-07T18:42:57.188Z,98725.44
2023-04-07T18:45:58.911Z,98721.25
2023-04-07T18:49:00.679Z,98727.84
2023-04-07T18:52:04.272Z,98736.00
2023-04-07T18:55:06.563Z,98738.72
2023-04-07T18:58:08.574Z,98747.75
2023-04-07T19:01:10.555Z,98757.53
2023-04-07T19:04:12.336Z,98758.69
2023-04-07T19:07:15.492Z,98755.44
2023-04-07T19:10:17.089Z,98757.28
2023-04-07T19:13:18.938Z,98765.31
2023-04-07T19:16:24.820Z,98771.59
2023-04-07T19:19:27.906Z,98768.38
2023-04-07T19:22:31.154Z,98780.06
2023-04-07T19:25:32.816Z,98784.56
2023-04-07T19:28:34.725Z,98788.03
2023-04-07T19:31:40.240Z,98789.88
2023-04-07T19:34:41.970Z,98790.00
2023-04-07T19:37:47.442Z,98792.84
2023-04-07T19:40:49.819Z,98797.50
2023-04-07T19:43:51.710Z,98807.31
2023-04-07T19:46:56.220Z,98801.25
2023-04-07T19:50:00.255Z,98805.06
2023-04-07T19:53:03.156Z,98799.19
2023-04-07T19:56:04.945Z,98802.97
2023-04-07T19:59:07.487Z,98812.91
2023-04-07T20:02:09.207Z,98814.19
2023-04-07T20:05:10.945Z,98813.41
2023-04-07T20:08:13.995Z,98814.47
2023-04-07T20:11:15.778Z,98823.34
2023-04-07T20:14:17.359Z,98825.19
2023-04-07T20:17:19.486Z,98821.84
2023-04-07T20:20:22.368Z,98819.38
2023-04-07T20:23:25.393Z,98828.59
2023-04-07T20:26:27.223Z,98828.66
2023-04-07T20:29:28.848Z,98833.28
2023-04-07T20:32:30.632Z,98831.66
2023-04-07T20:35:32.424Z,98836.31
2023-04-07T20:38:35.532Z,98834.63
2023-04-07T20:41:37.872Z,98830.19
2023-04-07T20:44:39.438Z,98833.91
2023-04-07T20:47:41.576Z,98843.59
2023-04-07T20:50:43.251Z,98838.41
2023-04-07T20:53:46.311Z,98852.69
2023-04-07T20:56:49.764Z,98852.84
2023-04-07T20:59:51.573Z,98855.63
2023-04-07T21:02:53.476Z,98856.66
2023-04-07T21:05:55.257Z,98856.84
2023-04-07T21:08:58.307Z,98856.13
2023-04-07T21:12:02.132Z,98863.19
2023-04-07T21:15:04.090Z,98855.34
2023-04-07T21:18:05.953Z,98855.44
2023-04-07T21:21:08.600Z,98849.28
2023-04-07T21:24:11.570Z,98870.41
2023-04-07T21:27:13.725Z,98865.25
2023-04-07T21:30:16.603Z,98865.34
2023-04-07T21:33:18.379Z,98873.50
2023-04-07T21:36:19.968Z,98883.38
2023-04-07T21:39:23.092Z,98872.78
2023-04-07T21:42:24.782Z,98880.88
2023-04-07T21:45:26.751Z,98877.41
2023-04-07T21:48:29.480Z,98879.28
2023-04-07T21:51:31.128Z,98877.66
2023-04-07T21:54:34.172Z,98876.75
2023-04-07T21:57:35.763Z,98883.09
2023-04-07T22:00:38.579Z,98884.94
2023-04-07T22:03:40.417Z,98885.94
2023-04-07T22:06:42.137Z,98887.91
2023-04-07T22:09:45.959Z,98890.56
2023-04-07T22:12:47.916Z,98884.50
2023-04-07T22:15:50.230Z,98889.16
2023-04-07T22:18:52.144Z,98898.13
2023-04-07T22:21:54.287Z,98891.91
2023-04-07T22:24:57.500Z,98896.50
2023-04-07T22:27:59.274Z,98897.53
2023-04-07T22:31:01.385Z,98896.72
2023-04-07T22:34:03.206Z,98897.72
2023-04-07T22:37:04.783Z,98898.44
2023-04-07T22:40:08.921Z,98901.06
2023-04-07T22:43:10.747Z,98890.59
2023-04-07T22:46:12.525Z,98904.69
2023-04-07T22:49:14.154Z,98907.34
2023-04-07T22:52:15.810Z,98899.28
2023-04-07T22:55:19.181Z,98901.75
2023-04-07T22:58:20.760Z,98907.88
2023-04-07T23:01:23.767Z,98906.97
2023-04-07T23:04:25.851Z,98910.50
2023-04-07T23:07:27.478Z,98907.84
2023-04-07T23:10:31.990Z,98910.47
2023-04-07T23:13:33.594Z,98915.81
2023-04-07T23:16:37.772Z,98914.00
2023-04-07T23:19:39.884Z,98911.38
2023-04-07T23:22:41.796Z,98920.19
2023-04-07T23:25:44.743Z,98922.78
2023-04-07T23:28:48.043Z,98923.59
2023-04-07T23:31:50.339Z,98923.59
2023-04-07T23:34:52.016Z,98920.91
2023-04-07T23:37:53.639Z,98922.72
2023-04-07T23:40:56.798Z,98923.53
2023-04-07T23:43:58.526Z,98921.97
2023-04-07T23:47:00.382Z,98926.41
2023-04-07T23:50:02.617Z,98929.91
2023-04-07T23:53:04.246Z,98928.06
2023-04-07T23:56:07.913Z,98927.22
2023-04-07T23:59:09.526Z,98928.16
